Leesville, Louisiana
Current Conditions -  °F | °C
As of 11:58 AM on Friday 28 Nov 2014 (Local Time) from KPOE Reporting Station
Clear Clear  
Wind Chill: 59°   Ceiling: Unl
Heat Index: 59°   Visibility: 10mi
Dew Point: 42°   Wind: 9mph
Humidity: 54%   Direction: 170°S
Pressure: 30.31"   Gusts: NA
Location:  31.14°N, 93.26°W
Report Text: KPOE 281758Z AUTO 17008KT 10SM CLR 15/06 A3031 RMK AO2 SLP267 T01500058 10150 20023 58027
Loading
Personal Weather Stations






























Interactive Weather Map New forecast layout! Learn more

10-Day Weather Forecast

Advertisements
Track Severe Weather on mobile